createdAt,value
2023-05-02T00:00:43.008Z,71.00
2023-05-02T00:03:12.249Z,71.13
2023-05-02T00:05:40.800Z,71.33
2023-05-02T00:08:08.467Z,71.50
2023-05-02T00:10:36.245Z,71.60
2023-05-02T00:13:03.706Z,71.74
2023-05-02T00:15:31.173Z,71.75
2023-05-02T00:17:59.297Z,71.70
2023-05-02T00:20:26.853Z,71.67
2023-05-02T00:22:57.002Z,71.62
2023-05-02T00:25:24.881Z,71.70
2023-05-02T00:27:53.039Z,71.65
2023-05-02T00:30:21.234Z,71.75
2023-05-02T00:32:49.456Z,71.81
2023-05-02T00:35:17.140Z,71.78
2023-05-02T00:37:44.736Z,71.81
2023-05-02T00:40:13.203Z,71.74
2023-05-02T00:42:41.247Z,71.87
2023-05-02T00:45:09.027Z,71.94
2023-05-02T00:47:36.990Z,71.98
2023-05-02T00:50:05.659Z,71.88
2023-05-02T00:52:33.603Z,71.79
2023-05-02T00:55:02.717Z,71.98
2023-05-02T00:57:30.262Z,72.02
2023-05-02T00:59:58.230Z,71.94
2023-05-02T01:02:37.596Z,71.84
2023-05-02T01:05:24.765Z,71.83
2023-05-02T01:08:16.575Z,72.04
2023-05-02T01:11:00.562Z,72.21
2023-05-02T01:13:32.461Z,72.30
2023-05-02T01:16:03.509Z,72.25
2023-05-02T01:18:36.896Z,72.07
2023-05-02T01:21:08.406Z,72.10
2023-05-02T01:24:05.747Z,72.19
2023-05-02T01:26:42.990Z,72.24
2023-05-02T01:29:14.367Z,72.30
2023-05-02T01:31:46.060Z,72.35
2023-05-02T01:34:13.996Z,72.29
2023-05-02T01:36:45.056Z,72.23
2023-05-02T01:39:18.583Z,72.41
2023-05-02T01:41:49.316Z,72.38
2023-05-02T01:44:18.649Z,72.31
2023-05-02T01:46:48.289Z,72.27
2023-05-02T01:49:16.360Z,72.42
2023-05-02T01:51:49.093Z,72.49
2023-05-02T01:54:18.543Z,72.56
2023-05-02T01:56:47.328Z,72.42
2023-05-02T01:59:22.145Z,72.41
2023-05-02T02:01:52.792Z,72.53
2023-05-02T02:04:22.463Z,72.46
2023-05-02T02:06:58.403Z,72.45
2023-05-02T02:09:26.855Z,72.58
2023-05-02T02:12:06.229Z,72.40
2023-05-02T02:14:38.154Z,72.60
2023-05-02T02:17:15.282Z,72.60
2023-05-02T02:19:44.309Z,72.68
2023-05-02T02:22:14.777Z,72.63
2023-05-02T02:24:44.818Z,72.70
2023-05-02T02:27:12.606Z,72.75
2023-05-02T02:29:40.129Z,72.79
2023-05-02T02:32:07.606Z,72.90
2023-05-02T02:34:35.613Z,72.93
2023-05-02T02:37:18.408Z,73.13
2023-05-02T02:40:00.699Z,73.21
2023-05-02T02:42:43.809Z,73.23
2023-05-02T02:45:23.624Z,73.30
2023-05-02T02:48:00.523Z,73.34
2023-05-02T02:50:47.961Z,73.30
2023-05-02T02:53:20.716Z,73.57
2023-05-02T02:55:58.456Z,73.52
2023-05-02T02:58:40.078Z,73.84
2023-05-02T03:01:15.093Z,73.94
2023-05-02T03:03:43.854Z,74.02
2023-05-02T03:06:12.014Z,74.16
2023-05-02T03:08:41.230Z,74.11
2023-05-02T03:11:09.862Z,74.12
2023-05-02T03:13:37.715Z,74.27
2023-05-02T03:16:08.404Z,74.33
2023-05-02T03:18:36.070Z,74.34
2023-05-02T03:21:04.091Z,74.36
2023-05-02T03:23:32.066Z,74.37
2023-05-02T03:25:59.560Z,74.33
2023-05-02T03:28:27.398Z,74.29
2023-05-02T03:30:55.630Z,74.26
2023-05-02T03:33:23.783Z,74.21
2023-05-02T03:35:51.751Z,74.10
2023-05-02T03:38:19.527Z,74.09
2023-05-02T03:40:47.260Z,74.34
2023-05-02T03:43:15.111Z,74.35
2023-05-02T03:45:42.962Z,74.45
2023-05-02T03:48:10.551Z,74.39
2023-05-02T03:50:38.453Z,74.52
2023-05-02T03:53:07.991Z,74.67
2023-05-02T03:55:45.879Z,74.76
2023-05-02T03:58:14.106Z,74.92
2023-05-02T04:00:41.698Z,75.08
2023-05-02T04:03:10.304Z,75.21
2023-05-02T04:05:39.967Z,75.17
2023-05-02T04:08:08.121Z,75.19
2023-05-02T04:10:36.043Z,75.21
2023-05-02T04:13:04.296Z,75.05
2023-05-02T04:15:33.594Z,74.95
2023-05-02T04:18:01.877Z,74.97
2023-05-02T04:20:29.827Z,75.04
2023-05-02T04:22:57.405Z,74.98
2023-05-02T04:25:25.573Z,74.77
2023-05-02T04:27:54.061Z,74.65
2023-05-02T04:30:21.991Z,74.48
2023-05-02T04:32:50.268Z,74.37
2023-05-02T04:35:18.056Z,74.45
2023-05-02T04:37:45.910Z,73.89
2023-05-02T04:40:14.113Z,73.71
2023-05-02T04:42:42.698Z,73.32
2023-05-02T04:45:10.849Z,73.03
2023-05-02T04:47:40.103Z,72.98
2023-05-02T04:50:08.693Z,72.70
2023-05-02T04:52:36.211Z,72.26
2023-05-02T04:55:05.514Z,72.63
2023-05-02T04:57:33.042Z,71.84
2023-05-02T05:00:01.228Z,71.55
2023-05-02T05:02:29.834Z,71.63
2023-05-02T05:04:57.731Z,71.12
2023-05-02T05:07:25.777Z,70.94
2023-05-02T05:09:54.080Z,70.99
2023-05-02T05:12:22.041Z,70.62
2023-05-02T05:14:50.620Z,70.12
2023-05-02T05:17:19.204Z,70.51
2023-05-02T05:19:46.739Z,70.40
2023-05-02T05:22:14.402Z,69.92
2023-05-02T05:25:27.771Z,67.62
2023-05-02T05:27:58.604Z,67.62
2023-05-02T05:30:26.182Z,68.79
2023-05-02T05:32:53.976Z,68.68
2023-05-02T05:35:22.359Z,68.09
2023-05-02T05:37:49.827Z,68.07
2023-05-02T05:40:18.363Z,67.38
2023-05-02T05:42:46.471Z,66.82
2023-05-02T05:45:14.962Z,66.45
2023-05-02T05:47:43.451Z,66.25
2023-05-02T05:50:11.728Z,66.06
2023-05-02T05:52:39.990Z,65.90
2023-05-02T05:55:07.924Z,65.58
2023-05-02T05:57:35.881Z,65.80
2023-05-02T06:00:03.891Z,65.16
2023-05-02T06:02:43.033Z,64.95
2023-05-02T06:05:12.638Z,64.34
2023-05-02T06:07:40.511Z,63.73
2023-05-02T06:10:09.622Z,63.57
2023-05-02T06:12:38.121Z,63.67
2023-05-02T06:15:07.837Z,63.23
2023-05-02T06:17:35.905Z,62.12
2023-05-02T06:20:04.248Z,61.77
2023-05-02T06:22:31.878Z,62.24
2023-05-02T06:25:00.200Z,61.37
2023-05-02T06:27:28.248Z,61.70
2023-05-02T06:29:55.721Z,60.90
2023-05-02T06:32:23.214Z,60.96
2023-05-02T06:34:50.968Z,60.75
2023-05-02T06:37:18.416Z,61.17
2023-05-02T06:39:45.908Z,61.02
2023-05-02T06:42:13.752Z,60.93
2023-05-02T06:44:41.201Z,59.30
2023-05-02T06:47:08.908Z,59.51
2023-05-02T06:49:36.696Z,60.21
2023-05-02T06:52:04.313Z,60.95
2023-05-02T06:54:31.781Z,60.85
2023-05-02T06:57:00.118Z,60.24
2023-05-02T06:59:27.957Z,60.84
2023-05-02T07:01:55.479Z,60.51
2023-05-02T07:04:23.329Z,60.36
2023-05-02T07:06:51.173Z,61.33
2023-05-02T07:09:19.245Z,60.04
2023-05-02T07:11:47.147Z,60.17
2023-05-02T07:14:14.749Z,60.51
2023-05-02T07:16:42.326Z,59.73
2023-05-02T07:19:10.159Z,60.23
2023-05-02T07:21:37.676Z,60.12
2023-05-02T07:24:05.340Z,60.02
2023-05-02T07:26:33.224Z,60.29
2023-05-02T07:29:01.009Z,59.71
2023-05-02T07:31:28.525Z,60.09
2023-05-02T07:33:56.418Z,60.34
2023-05-02T07:36:24.020Z,59.44
2023-05-02T07:38:51.526Z,59.67
2023-05-02T07:41:19.290Z,59.42
2023-05-02T07:43:46.897Z,58.94
2023-05-02T07:46:14.548Z,59.33
2023-05-02T07:48:42.911Z,58.66
2023-05-02T07:51:11.261Z,58.23
2023-05-02T07:53:38.732Z,58.38
2023-05-02T07:56:08.533Z,58.22
2023-05-02T07:58:37.297Z,57.93
2023-05-02T08:01:04.969Z,58.16
2023-05-02T08:03:32.856Z,57.70
2023-05-02T08:06:02.236Z,56.74
2023-05-02T08:08:29.751Z,56.82
2023-05-02T08:10:57.561Z,55.79
2023-05-02T08:13:25.058Z,55.88
2023-05-02T08:15:52.699Z,56.02
2023-05-02T08:18:20.546Z,55.55
2023-05-02T08:20:48.411Z,55.55
2023-05-02T08:23:15.929Z,54.49
2023-05-02T08:25:43.816Z,54.77
2023-05-02T08:28:11.501Z,55.14
2023-05-02T08:30:39.054Z,54.75
2023-05-02T08:33:06.921Z,53.81
2023-05-02T08:35:34.434Z,53.21
2023-05-02T08:38:02.266Z,53.78
2023-05-02T08:40:42.213Z,53.91
2023-05-02T08:43:12.129Z,53.98
2023-05-02T08:45:44.785Z,53.73
2023-05-02T08:48:15.189Z,54.41
2023-05-02T08:50:45.705Z,54.35
2023-05-02T08:53:14.568Z,54.80
2023-05-02T08:55:42.996Z,54.16
2023-05-02T08:58:12.796Z,54.50
2023-05-02T09:00:43.212Z,53.99
2023-05-02T09:03:32.768Z,53.43
2023-05-02T09:06:18.027Z,53.00
2023-05-02T09:08:53.099Z,53.88
2023-05-02T09:11:22.256Z,53.32
2023-05-02T09:13:52.059Z,53.47
2023-05-02T09:16:25.631Z,52.86
2023-05-02T09:18:55.510Z,52.78
2023-05-02T09:21:35.271Z,52.00
2023-05-02T09:24:16.064Z,51.98
2023-05-02T09:26:44.741Z,49.83
2023-05-02T09:29:20.112Z,50.62
2023-05-02T09:31:55.479Z,51.58
2023-05-02T09:34:24.554Z,50.32
2023-05-02T09:36:54.654Z,50.57
2023-05-02T09:39:25.723Z,52.34
2023-05-02T09:41:54.775Z,51.34
2023-05-02T09:44:25.193Z,51.37
2023-05-02T09:46:55.581Z,51.81
2023-05-02T09:49:46.458Z,52.45
2023-05-02T09:52:19.875Z,51.32
2023-05-02T09:54:50.532Z,51.92
2023-05-02T09:57:18.092Z,51.21
2023-05-02T09:59:58.720Z,49.71
2023-05-02T10:02:32.890Z,51.48
2023-05-02T10:05:02.812Z,49.10
2023-05-02T10:07:30.889Z,49.84
2023-05-02T10:10:01.526Z,48.66
2023-05-02T10:12:32.823Z,48.51
2023-05-02T10:15:04.324Z,48.22
2023-05-02T10:17:42.370Z,47.41
2023-05-02T10:20:11.711Z,46.52
2023-05-02T10:22:40.362Z,47.21
2023-05-02T10:25:08.334Z,47.35
2023-05-02T10:27:37.760Z,47.08
2023-05-02T10:30:06.825Z,46.04
2023-05-02T10:32:34.810Z,46.47
2023-05-02T10:35:05.663Z,45.78
2023-05-02T10:37:36.268Z,47.10
2023-05-02T10:40:06.267Z,47.88
2023-05-02T10:42:39.581Z,48.35
2023-05-02T10:45:13.539Z,49.00
2023-05-02T10:47:41.600Z,47.81
2023-05-02T10:50:09.363Z,47.51
2023-05-02T10:52:38.848Z,48.79
2023-05-02T10:55:22.114Z,48.42
2023-05-02T10:58:01.492Z,47.57
2023-05-02T11:00:32.092Z,48.13
2023-05-02T11:03:01.200Z,48.38
2023-05-02T11:05:29.340Z,48.88
2023-05-02T11:08:15.675Z,49.60
2023-05-02T11:10:46.089Z,49.51
2023-05-02T11:13:13.669Z,49.06
2023-05-02T11:15:41.341Z,49.55
2023-05-02T11:18:12.664Z,49.46
2023-05-02T11:20:42.495Z,49.24
2023-05-02T11:23:16.926Z,49.26
2023-05-02T11:25:47.009Z,48.25
2023-05-02T11:28:37.979Z,49.41
2023-05-02T11:31:07.193Z,49.32
2023-05-02T11:33:35.551Z,49.09
2023-05-02T11:36:03.473Z,49.73
2023-05-02T11:38:38.029Z,49.12
2023-05-02T11:41:06.035Z,50.11
2023-05-02T11:43:33.565Z,50.73
2023-05-02T11:46:02.613Z,50.28
2023-05-02T11:48:31.226Z,50.25
2023-05-02T11:51:05.423Z,49.92
2023-05-02T11:53:33.915Z,51.15
2023-05-02T11:56:04.321Z,51.56
2023-05-02T11:58:33.759Z,51.51
2023-05-02T12:01:15.575Z,51.31
2023-05-02T12:03:44.211Z,52.17
2023-05-02T12:06:15.464Z,52.23
2023-05-02T12:08:44.632Z,52.35
2023-05-02T12:11:16.646Z,53.37
2023-05-02T12:13:47.090Z,52.63
2023-05-02T12:16:15.227Z,52.32
2023-05-02T12:18:43.313Z,53.27
2023-05-02T12:21:11.434Z,52.90
2023-05-02T12:23:40.232Z,52.61
2023-05-02T12:26:19.038Z,53.67
2023-05-02T12:28:57.270Z,54.48
2023-05-02T12:31:25.833Z,53.58
2023-05-02T12:33:58.081Z,53.78
2023-05-02T12:36:28.676Z,55.39
2023-05-02T12:38:59.964Z,56.43
2023-05-02T12:41:34.818Z,57.24
2023-05-02T12:44:02.917Z,57.99
2023-05-02T12:46:31.819Z,58.95
2023-05-02T12:49:18.171Z,59.32
2023-05-02T12:51:54.214Z,57.13
2023-05-02T12:54:21.771Z,57.30
2023-05-02T12:56:51.903Z,56.74
2023-05-02T12:59:30.047Z,56.29
2023-05-02T13:01:58.696Z,55.86
2023-05-02T13:04:41.629Z,56.81
2023-05-02T13:07:09.470Z,56.08
2023-05-02T13:09:37.570Z,56.35
2023-05-02T13:12:06.183Z,56.62
2023-05-02T13:14:34.030Z,54.92
2023-05-02T13:17:01.783Z,53.92
2023-05-02T13:19:31.533Z,54.18
2023-05-02T13:21:59.541Z,54.38
2023-05-02T13:24:27.107Z,54.60
2023-05-02T13:26:54.611Z,54.14
2023-05-02T13:29:22.418Z,54.16
2023-05-02T13:31:50.014Z,54.18
2023-05-02T13:34:17.537Z,52.57
2023-05-02T13:36:46.494Z,51.43
2023-05-02T13:39:14.184Z,51.95
2023-05-02T13:41:42.244Z,52.20
2023-05-02T13:44:10.131Z,51.64
2023-05-02T13:46:38.454Z,54.14
2023-05-02T13:49:06.283Z,55.58
2023-05-02T13:51:34.257Z,57.00
2023-05-02T13:54:02.256Z,56.42
2023-05-02T13:56:29.735Z,56.63
2023-05-02T13:58:57.852Z,56.95
2023-05-02T14:01:28.296Z,57.40
2023-05-02T14:03:56.387Z,57.98
2023-05-02T14:06:24.482Z,58.32
2023-05-02T14:08:52.223Z,58.03
2023-05-02T14:11:19.968Z,58.52
2023-05-02T14:13:47.452Z,58.97
2023-05-02T14:16:15.002Z,59.06
2023-05-02T14:18:43.007Z,58.99
2023-05-02T14:21:10.515Z,59.10
2023-05-02T14:23:38.039Z,59.48
2023-05-02T14:26:05.885Z,59.22
2023-05-02T14:28:33.626Z,59.32
2023-05-02T14:31:01.313Z,59.03
2023-05-02T14:33:29.158Z,59.36
2023-05-02T14:35:56.763Z,59.96
2023-05-02T14:38:24.232Z,59.65
2023-05-02T14:40:51.988Z,60.54
2023-05-02T14:43:19.529Z,60.76
2023-05-02T14:45:47.173Z,60.60
2023-05-02T14:48:17.051Z,60.66
2023-05-02T14:50:44.665Z,60.41
2023-05-02T14:53:13.051Z,59.78
2023-05-02T14:55:41.146Z,60.45
2023-05-02T14:58:10.465Z,60.62
2023-05-02T15:00:38.690Z,59.98
2023-05-02T15:03:08.055Z,60.90
2023-05-02T15:05:36.941Z,61.15
2023-05-02T15:08:05.004Z,61.28
2023-05-02T15:10:37.011Z,61.24
2023-05-02T15:13:04.864Z,60.15
2023-05-02T15:15:32.762Z,60.27
2023-05-02T15:18:00.303Z,61.02
2023-05-02T15:20:27.824Z,61.03
2023-05-02T15:22:55.640Z,61.06
2023-05-02T15:25:23.084Z,62.08
2023-05-02T15:27:50.551Z,62.24
2023-05-02T15:30:19.189Z,62.02
2023-05-02T15:32:47.580Z,61.34
2023-05-02T15:35:15.134Z,63.14
2023-05-02T15:37:43.043Z,62.41
2023-05-02T15:40:10.948Z,62.26
2023-05-02T15:42:38.410Z,62.32
2023-05-02T15:45:06.718Z,62.05
2023-05-02T15:47:34.298Z,62.62
2023-05-02T15:50:02.381Z,61.59
2023-05-02T15:52:30.507Z,62.06
2023-05-02T15:54:58.837Z,61.60
2023-05-02T15:57:26.399Z,62.26
2023-05-02T15:59:54.495Z,61.94
2023-05-02T16:02:22.028Z,62.10
2023-05-02T16:04:49.874Z,62.50
2023-05-02T16:07:17.412Z,61.72
2023-05-02T16:09:44.961Z,62.16
2023-05-02T16:12:13.650Z,62.04
2023-05-02T16:14:41.093Z,62.39
2023-05-02T16:17:08.615Z,62.83
2023-05-02T16:19:36.429Z,62.62
2023-05-02T16:22:04.098Z,63.39
2023-05-02T16:24:31.601Z,63.43
2023-05-02T16:26:59.463Z,63.93
2023-05-02T16:29:26.917Z,64.83
2023-05-02T16:31:54.641Z,64.58
2023-05-02T16:34:22.478Z,64.55
2023-05-02T16:36:51.445Z,64.61
2023-05-02T16:39:19.448Z,64.48
2023-05-02T16:41:47.218Z,64.52
2023-05-02T16:44:14.845Z,64.25
2023-05-02T16:46:42.593Z,63.87
2023-05-02T16:49:10.467Z,63.60
2023-05-02T16:51:37.933Z,64.15
2023-05-02T16:54:05.491Z,64.76
2023-05-02T16:56:33.316Z,64.62
2023-05-02T16:59:00.808Z,64.50
2023-05-02T17:01:28.713Z,64.56
2023-05-02T17:03:56.638Z,64.41
2023-05-02T17:06:24.213Z,64.28
2023-05-02T17:08:51.897Z,64.38
2023-05-02T17:11:21.824Z,64.53
2023-05-02T17:13:49.854Z,64.63
2023-05-02T17:16:18.102Z,64.29
2023-05-02T17:18:46.408Z,64.48
2023-05-02T17:21:14.834Z,64.32
2023-05-02T17:23:42.588Z,64.31
2023-05-02T17:26:19.105Z,64.42
2023-05-02T17:28:46.716Z,64.57
2023-05-02T17:31:14.678Z,64.47
2023-05-02T17:33:42.488Z,64.47
2023-05-02T17:36:10.472Z,64.79
2023-05-02T17:38:38.361Z,65.11
2023-05-02T17:41:05.927Z,65.39
2023-05-02T17:43:33.450Z,65.40
2023-05-02T17:46:10.159Z,65.72
2023-05-02T17:48:37.811Z,66.97
2023-05-02T17:51:07.108Z,67.26
2023-05-02T17:53:36.815Z,67.15
2023-05-02T17:56:06.007Z,67.46
2023-05-02T17:58:35.490Z,67.38
2023-05-02T18:01:11.080Z,68.00
2023-05-02T18:03:39.065Z,67.61
2023-05-02T18:06:07.112Z,67.96
2023-05-02T18:08:34.788Z,68.16
2023-05-02T18:11:03.512Z,68.27
2023-05-02T18:13:31.134Z,69.08
2023-05-02T18:16:01.541Z,68.73
2023-05-02T18:18:29.418Z,68.80
2023-05-02T18:20:56.904Z,68.94
2023-05-02T18:23:24.504Z,68.86
2023-05-02T18:25:52.251Z,69.10
2023-05-02T18:28:19.895Z,68.93
2023-05-02T18:30:47.453Z,69.07
2023-05-02T18:33:15.413Z,69.08
2023-05-02T18:35:49.175Z,68.97
2023-05-02T18:38:17.540Z,69.08
2023-05-02T18:40:45.158Z,69.53
2023-05-02T18:43:12.709Z,70.66
2023-05-02T18:45:40.574Z,71.28
2023-05-02T18:48:08.221Z,71.84
2023-05-02T18:50:36.023Z,72.35
2023-05-02T18:53:04.084Z,72.86
2023-05-02T18:55:34.637Z,73.30
2023-05-02T18:58:02.255Z,73.75
2023-05-02T19:00:31.645Z,73.99
2023-05-02T19:02:59.407Z,74.07
2023-05-02T19:05:27.560Z,74.42
2023-05-02T19:07:56.101Z,74.59
2023-05-02T19:10:24.068Z,74.45
2023-05-02T19:12:51.602Z,74.79
2023-05-02T19:15:19.454Z,74.73
2023-05-02T19:17:47.477Z,74.88
2023-05-02T19:20:15.075Z,74.93
2023-05-02T19:22:43.026Z,75.15
2023-05-02T19:25:12.910Z,74.91
2023-05-02T19:27:42.199Z,75.36
2023-05-02T19:30:10.572Z,75.51
2023-05-02T19:32:38.378Z,75.79
2023-05-02T19:35:07.171Z,75.86
2023-05-02T19:37:35.066Z,76.06
2023-05-02T19:40:02.757Z,76.28
2023-05-02T19:42:30.373Z,76.15
2023-05-02T19:44:58.247Z,76.47
2023-05-02T19:47:27.428Z,77.59
2023-05-02T19:49:54.966Z,78.12
2023-05-02T19:52:22.944Z,78.55
2023-05-02T19:54:53.944Z,79.17
2023-05-02T19:57:21.652Z,79.28
2023-05-02T19:59:49.431Z,79.36
2023-05-02T20:02:16.956Z,80.08
2023-05-02T20:04:44.788Z,80.71
2023-05-02T20:07:12.260Z,80.77
2023-05-02T20:09:39.894Z,81.18
2023-05-02T20:12:07.769Z,81.23
2023-05-02T20:14:35.417Z,81.90
2023-05-02T20:17:02.998Z,81.69
2023-05-02T20:19:32.327Z,81.87
2023-05-02T20:21:59.772Z,82.38
2023-05-02T20:24:27.248Z,81.73
2023-05-02T20:26:55.099Z,82.32
2023-05-02T20:29:22.573Z,82.85
2023-05-02T20:31:50.344Z,82.72
2023-05-02T20:34:18.255Z,83.26
2023-05-02T20:36:45.852Z,83.45
2023-05-02T20:39:14.366Z,83.20
2023-05-02T20:41:42.390Z,83.57
2023-05-02T20:44:09.947Z,83.55
2023-05-02T20:46:38.101Z,83.89
2023-05-02T20:49:06.005Z,84.52
2023-05-02T20:51:33.578Z,84.68
2023-05-02T20:54:01.253Z,85.06
2023-05-02T20:56:29.136Z,85.46
2023-05-02T20:58:56.812Z,85.55
2023-05-02T21:01:26.229Z,85.44
2023-05-02T21:03:54.106Z,85.57
2023-05-02T21:06:21.752Z,85.76
2023-05-02T21:08:49.477Z,85.82
2023-05-02T21:11:17.315Z,86.05
2023-05-02T21:13:44.888Z,85.96
2023-05-02T21:16:16.144Z,85.64
2023-05-02T21:18:44.512Z,85.21
2023-05-02T21:21:12.269Z,85.36
2023-05-02T21:23:39.817Z,85.72
2023-05-02T21:26:08.020Z,85.80
2023-05-02T21:28:35.563Z,85.91
2023-05-02T21:31:03.341Z,86.36
2023-05-02T21:33:31.153Z,87.04
2023-05-02T21:35:59.283Z,87.35
2023-05-02T21:38:27.446Z,87.50
2023-05-02T21:40:55.309Z,87.72
2023-05-02T21:43:22.775Z,88.35
2023-05-02T21:45:50.656Z,88.08
2023-05-02T21:48:18.482Z,88.19
2023-05-02T21:50:46.051Z,88.79
2023-05-02T21:53:14.248Z,88.72
2023-05-02T21:55:42.154Z,89.18
2023-05-02T21:58:12.357Z,89.30
2023-05-02T22:00:41.196Z,89.52
2023-05-02T22:03:11.840Z,89.38
2023-05-02T22:05:41.372Z,89.47
2023-05-02T22:08:11.340Z,89.56
2023-05-02T22:10:40.778Z,89.43
2023-05-02T22:13:12.342Z,89.47
2023-05-02T22:15:45.563Z,89.89
2023-05-02T22:18:14.453Z,89.67
2023-05-02T22:20:43.294Z,89.60
2023-05-02T22:23:12.031Z,89.76
2023-05-02T22:25:44.936Z,89.71
2023-05-02T22:28:13.795Z,89.77
2023-05-02T22:30:44.856Z,89.74
2023-05-02T22:33:14.228Z,90.08
2023-05-02T22:35:42.147Z,90.02
2023-05-02T22:38:14.506Z,90.09
2023-05-02T22:40:42.450Z,90.18
2023-05-02T22:43:09.980Z,90.06
2023-05-02T22:45:38.415Z,90.07
2023-05-02T22:48:07.347Z,90.13
2023-05-02T22:50:34.951Z,90.29
2023-05-02T22:53:04.125Z,90.03
2023-05-02T22:55:32.175Z,90.35
2023-05-02T22:57:59.672Z,90.22
2023-05-02T23:00:27.377Z,90.28
2023-05-02T23:02:56.335Z,90.07
2023-05-02T23:05:24.103Z,90.37
2023-05-02T23:07:51.565Z,90.23
2023-05-02T23:10:19.351Z,90.32
2023-05-02T23:12:46.930Z,90.25
2023-05-02T23:15:14.436Z,90.15
2023-05-02T23:17:42.617Z,90.15
2023-05-02T23:20:10.759Z,90.24
2023-05-02T23:22:44.351Z,90.30
2023-05-02T23:25:13.494Z,89.99
2023-05-02T23:27:41.136Z,89.95
2023-05-02T23:30:09.306Z,89.65
2023-05-02T23:32:37.678Z,89.67
2023-05-02T23:35:05.981Z,89.49
2023-05-02T23:37:33.962Z,89.50
2023-05-02T23:40:02.148Z,89.57
2023-05-02T23:42:30.126Z,89.35
2023-05-02T23:44:57.951Z,89.25
2023-05-02T23:47:28.869Z,89.55
2023-05-02T23:49:56.417Z,89.64
2023-05-02T23:52:23.915Z,89.76
2023-05-02T23:54:52.733Z,89.59
2023-05-02T23:57:20.185Z,89.61
2023-05-02T23:59:47.719Z,89.62
